Hastings, West Virginia
Current Conditions -  °F | °C
As of 1:53 AM on Thursday 23 Oct 2014 (Local Time) from KCKB Reporting Station
Overcast Overcast  
Wind Chill: 44°   Ceiling: 2600
Heat Index: 47°   Visibility: 10mi
Dew Point: 41°   Wind: 6mph
Humidity: 80%   Direction: 320°NW
Pressure: 30.14"   Gusts: NA
Location:  39.5697°N, 80.6462°W
Report Text: KCKB 230553Z 32005KT 10SM OVC026 08/05 A3014 RMK AO2 SLP205 T00830050 10089 20083 56013
Loading
Personal Weather Stations






























Interactive Weather Map New forecast layout! Learn more

10-Day Weather Forecast

Advertisements
Track Severe Weather on mobile